createdAt,value
2022-12-29T00:01:07.209Z,59.39
2022-12-29T00:03:53.339Z,59.58
2022-12-29T00:06:39.156Z,59.30
2022-12-29T00:09:24.817Z,59.61
2022-12-29T00:12:10.423Z,59.45
2022-12-29T00:30:41.959Z,59.81
2022-12-29T00:33:49.989Z,59.86
2022-12-29T00:36:40.722Z,60.11
2022-12-29T00:39:45.540Z,59.64
2022-12-29T00:42:49.931Z,59.74
2022-12-29T00:45:35.974Z,59.89
2022-12-29T00:48:42.168Z,59.77
2022-12-29T00:51:28.213Z,59.58
2022-12-29T00:54:14.229Z,59.87
2022-12-29T00:57:01.603Z,59.97
2022-12-29T00:59:47.612Z,60.22
2022-12-29T01:02:35.439Z,59.81
2022-12-29T01:05:22.692Z,60.13
2022-12-29T01:08:08.424Z,60.58
2022-12-29T01:11:11.553Z,60.17
2022-12-29T01:14:04.096Z,59.99
2022-12-29T01:16:51.074Z,60.20
2022-12-29T01:19:37.009Z,60.12
2022-12-29T01:22:22.645Z,60.17
2022-12-29T01:25:08.447Z,60.37
2022-12-29T01:27:54.222Z,60.00
2022-12-29T01:30:39.859Z,59.95
2022-12-29T01:33:25.612Z,59.78
2022-12-29T01:36:14.012Z,60.10
2022-12-29T01:39:00.313Z,60.01
2022-12-29T01:41:46.571Z,60.14
2022-12-29T01:44:55.806Z,60.30
2022-12-29T01:48:00.322Z,60.33
2022-12-29T01:50:47.641Z,60.63
2022-12-29T01:53:35.923Z,60.52
2022-12-29T01:56:22.652Z,60.36
2022-12-29T01:59:13.519Z,59.84
2022-12-29T02:02:01.263Z,59.93
2022-12-29T02:04:47.077Z,59.81
2022-12-29T02:07:37.150Z,60.11
2022-12-29T02:10:24.728Z,59.79
2022-12-29T02:13:10.732Z,60.13
2022-12-29T02:16:16.135Z,60.30
2022-12-29T02:19:05.132Z,60.16
2022-12-29T02:22:04.123Z,60.71
2022-12-29T02:25:15.455Z,60.67
2022-12-29T02:28:10.716Z,60.30
2022-12-29T02:31:11.629Z,60.73
2022-12-29T02:34:12.759Z,60.68
2022-12-29T02:37:29.729Z,60.82
2022-12-29T02:40:25.230Z,60.78
2022-12-29T02:43:24.565Z,60.43
2022-12-29T02:46:13.628Z,60.49
2022-12-29T02:49:33.368Z,60.54
2022-12-29T02:52:24.988Z,60.81
2022-12-29T02:55:12.746Z,60.69
2022-12-29T02:58:23.619Z,60.73
2022-12-29T03:01:24.785Z,60.89
2022-12-29T03:04:43.696Z,60.42
2022-12-29T03:07:48.091Z,60.22
2022-12-29T03:10:49.996Z,60.36
2022-12-29T03:14:12.362Z,60.65
2022-12-29T03:17:02.469Z,60.39
2022-12-29T03:19:50.461Z,60.70
2022-12-29T03:22:41.926Z,60.63
2022-12-29T03:25:39.646Z,60.76
2022-12-29T03:28:31.702Z,61.24
2022-12-29T03:31:18.001Z,60.58
2022-12-29T03:34:04.359Z,60.78
2022-12-29T03:37:14.203Z,60.61
2022-12-29T03:40:00.383Z,60.76
2022-12-29T03:42:46.556Z,60.73
2022-12-29T03:45:32.619Z,60.60
2022-12-29T03:48:18.702Z,60.88
2022-12-29T03:51:06.216Z,60.47
2022-12-29T03:53:52.257Z,60.27
2022-12-29T03:56:38.049Z,60.75
2022-12-29T03:59:24.492Z,60.65
2022-12-29T04:02:10.861Z,60.91
2022-12-29T04:04:57.211Z,60.79
2022-12-29T04:07:43.124Z,60.90
2022-12-29T04:10:28.950Z,60.86
2022-12-29T04:13:18.113Z,60.64
2022-12-29T04:16:04.575Z,60.69
2022-12-29T04:18:50.734Z,60.71
2022-12-29T04:21:36.802Z,60.85
2022-12-29T04:24:23.418Z,60.33
2022-12-29T04:27:09.585Z,60.92
2022-12-29T04:30:14.133Z,60.63
2022-12-29T04:33:13.384Z,60.49
2022-12-29T04:36:02.482Z,60.87
2022-12-29T04:38:48.647Z,60.97
2022-12-29T04:41:34.508Z,60.56
2022-12-29T04:45:33.575Z,60.92
2022-12-29T04:48:33.798Z,60.94
2022-12-29T04:51:54.083Z,60.95
2022-12-29T04:54:40.722Z,61.07
2022-12-29T04:57:32.947Z,61.09
2022-12-29T05:00:20.378Z,60.81
2022-12-29T05:03:06.961Z,61.35
2022-12-29T05:07:03.391Z,61.21
2022-12-29T05:14:02.845Z,60.99
2022-12-29T05:16:48.724Z,61.00
2022-12-29T05:19:34.820Z,60.82
2022-12-29T05:22:40.634Z,61.35
2022-12-29T05:25:27.881Z,61.11
2022-12-29T05:28:23.866Z,61.03
2022-12-29T05:31:36.874Z,60.85
2022-12-29T05:34:24.424Z,61.05
2022-12-29T05:37:10.903Z,61.02
2022-12-29T05:40:00.561Z,61.25
2022-12-29T05:42:51.432Z,61.44
2022-12-29T05:46:00.446Z,61.10
2022-12-29T05:49:05.890Z,61.18
2022-12-29T05:52:46.808Z,61.20
2022-12-29T05:55:33.274Z,61.09
2022-12-29T05:58:19.415Z,61.16
2022-12-29T06:01:10.317Z,60.80
2022-12-29T06:03:57.074Z,61.14
2022-12-29T06:06:43.963Z,61.09
2022-12-29T06:09:38.926Z,61.08
2022-12-29T06:12:28.472Z,60.92
2022-12-29T06:15:14.920Z,61.09
2022-12-29T06:18:03.775Z,61.05
2022-12-29T06:20:50.163Z,61.17
2022-12-29T06:23:41.312Z,61.28
2022-12-29T06:26:31.059Z,60.88
2022-12-29T06:29:18.226Z,61.33
2022-12-29T06:32:45.695Z,61.39
2022-12-29T06:35:32.228Z,61.25
2022-12-29T06:38:40.799Z,61.43
2022-12-29T06:41:31.950Z,61.39
2022-12-29T06:44:42.124Z,61.10
2022-12-29T06:47:29.223Z,61.23
2022-12-29T06:50:14.943Z,60.93
2022-12-29T06:53:01.115Z,61.27
2022-12-29T06:55:46.786Z,61.32
2022-12-29T06:58:32.751Z,61.26
2022-12-29T07:01:19.190Z,61.06
2022-12-29T07:04:06.187Z,61.02
2022-12-29T07:06:51.884Z,60.89
2022-12-29T07:09:37.610Z,61.19
2022-12-29T07:12:23.629Z,61.03
2022-12-29T07:15:10.189Z,61.17
2022-12-29T07:17:55.969Z,61.18
2022-12-29T07:20:41.638Z,61.06
2022-12-29T07:23:27.444Z,61.13
2022-12-29T07:26:15.359Z,61.28
2022-12-29T07:29:02.246Z,61.21
2022-12-29T07:31:48.104Z,61.20
2022-12-29T07:34:33.677Z,61.09
2022-12-29T07:37:19.585Z,61.04
2022-12-29T07:40:06.019Z,61.07
2022-12-29T07:42:51.799Z,61.20
2022-12-29T07:45:45.654Z,61.41
2022-12-29T07:48:31.407Z,61.28
2022-12-29T07:51:17.220Z,61.33
2022-12-29T07:54:02.911Z,61.38
2022-12-29T07:56:48.667Z,61.23
2022-12-29T07:59:34.360Z,61.30
2022-12-29T08:02:20.110Z,61.27
2022-12-29T08:05:06.839Z,61.14
2022-12-29T08:07:52.424Z,61.25
2022-12-29T08:10:38.271Z,61.43
2022-12-29T08:13:24.315Z,61.68
2022-12-29T08:16:16.194Z,61.80
2022-12-29T08:19:02.576Z,61.54
2022-12-29T08:21:48.637Z,61.57
2022-12-29T08:24:34.169Z,61.49
2022-12-29T08:27:27.425Z,61.49
2022-12-29T08:30:48.836Z,61.61
2022-12-29T08:33:34.991Z,61.70
2022-12-29T08:36:20.845Z,61.32
2022-12-29T08:39:06.790Z,61.31
2022-12-29T08:41:56.627Z,61.46
2022-12-29T08:44:46.984Z,61.25
2022-12-29T08:47:32.669Z,61.14
2022-12-29T08:50:18.659Z,60.91
2022-12-29T08:53:04.739Z,61.11
2022-12-29T08:56:02.396Z,61.08
2022-12-29T08:59:03.165Z,61.23
2022-12-29T09:01:50.355Z,61.17
2022-12-29T09:04:36.478Z,60.75
2022-12-29T09:07:22.530Z,61.16
2022-12-29T09:10:08.434Z,61.37
2022-12-29T09:12:54.323Z,60.77
2022-12-29T09:15:40.530Z,60.59
2022-12-29T09:18:26.466Z,60.56
2022-12-29T09:21:13.529Z,60.60
2022-12-29T09:23:59.160Z,60.09
2022-12-29T09:26:47.055Z,60.29
2022-12-29T09:29:37.961Z,60.35
2022-12-29T09:32:24.394Z,59.89
2022-12-29T09:35:10.981Z,59.64
2022-12-29T09:37:56.965Z,59.71
2022-12-29T09:40:51.873Z,59.85
2022-12-29T09:44:12.769Z,59.20
2022-12-29T09:47:01.740Z,59.27
2022-12-29T09:49:50.715Z,59.23
2022-12-29T09:52:46.482Z,58.89
2022-12-29T09:55:40.459Z,58.32
2022-12-29T09:58:46.735Z,58.65
2022-12-29T10:01:38.581Z,58.33
2022-12-29T10:04:27.823Z,58.38
2022-12-29T10:07:37.282Z,58.00
2022-12-29T10:10:32.727Z,58.08
2022-12-29T10:13:22.869Z,57.93
2022-12-29T10:16:29.413Z,58.02
2022-12-29T10:19:22.383Z,57.50
2022-12-29T10:22:36.079Z,56.99
2022-12-29T10:25:27.223Z,57.28
2022-12-29T10:28:24.540Z,57.05
2022-12-29T10:31:35.936Z,57.02
2022-12-29T10:34:53.673Z,56.70
2022-12-29T10:37:54.481Z,56.74
2022-12-29T10:41:08.658Z,56.37
2022-12-29T10:43:58.512Z,56.31
2022-12-29T10:46:56.790Z,56.27
2022-12-29T10:49:43.714Z,55.67
2022-12-29T10:52:30.073Z,55.44
2022-12-29T10:55:24.089Z,55.16
2022-12-29T10:58:13.945Z,55.04
2022-12-29T11:01:00.675Z,54.57
2022-12-29T11:04:05.451Z,54.43
2022-12-29T11:06:51.480Z,54.71
2022-12-29T11:09:42.697Z,54.62
2022-12-29T11:12:42.289Z,54.56
2022-12-29T11:15:28.573Z,54.45
2022-12-29T11:18:43.657Z,53.11
2022-12-29T11:21:43.648Z,53.41
2022-12-29T11:24:32.135Z,53.19
2022-12-29T11:27:27.857Z,53.52
2022-12-29T11:30:27.542Z,53.39
2022-12-29T11:33:15.496Z,53.57
2022-12-29T11:36:04.379Z,53.13
2022-12-29T11:38:52.586Z,53.12
2022-12-29T11:41:38.623Z,52.49
2022-12-29T11:44:25.427Z,52.29
2022-12-29T11:47:21.458Z,51.83
2022-12-29T11:50:09.298Z,52.07
2022-12-29T11:53:21.665Z,51.11
2022-12-29T11:56:10.880Z,52.07
2022-12-29T11:58:56.999Z,51.32
2022-12-29T12:01:44.114Z,51.79
2022-12-29T12:04:32.395Z,51.30
2022-12-29T12:07:22.169Z,50.93
2022-12-29T12:10:33.812Z,50.51
2022-12-29T12:13:25.201Z,50.11
2022-12-29T12:16:16.621Z,49.92
2022-12-29T12:19:16.598Z,50.29
2022-12-29T12:22:10.007Z,50.45
2022-12-29T12:25:00.270Z,49.10
2022-12-29T12:28:00.964Z,51.31
2022-12-29T12:30:50.304Z,51.36
2022-12-29T12:33:46.017Z,51.59
2022-12-29T12:37:11.242Z,51.24
2022-12-29T12:40:00.332Z,51.96
2022-12-29T12:43:11.384Z,51.75
2022-12-29T12:46:32.114Z,51.48
2022-12-29T12:49:24.426Z,51.66
2022-12-29T12:52:32.011Z,51.38
2022-12-29T12:56:13.974Z,50.93
2022-12-29T12:59:11.822Z,51.65
2022-12-29T13:02:30.924Z,51.37
2022-12-29T13:05:35.594Z,51.48
2022-12-29T13:08:50.570Z,51.31
2022-12-29T13:12:00.067Z,51.70
2022-12-29T13:15:06.383Z,51.54
2022-12-29T13:18:12.572Z,50.67
2022-12-29T13:21:06.519Z,51.95
2022-12-29T13:24:15.121Z,51.89
2022-12-29T13:27:25.612Z,52.02
2022-12-29T13:30:16.855Z,52.42
2022-12-29T13:33:23.151Z,52.58
2022-12-29T13:36:32.948Z,52.31
2022-12-29T13:39:38.164Z,52.51
2022-12-29T13:42:25.490Z,52.72
2022-12-29T13:45:32.735Z,52.72
2022-12-29T13:48:22.949Z,53.30
2022-12-29T13:51:10.571Z,53.25
2022-12-29T13:54:05.113Z,53.39
2022-12-29T13:56:53.418Z,53.50
2022-12-29T13:59:42.723Z,53.63
2022-12-29T14:02:28.902Z,53.52
2022-12-29T14:05:31.237Z,53.90
2022-12-29T14:08:18.430Z,54.06
2022-12-29T14:11:13.393Z,53.87
2022-12-29T14:13:59.496Z,53.59
2022-12-29T14:16:46.902Z,53.78
2022-12-29T14:19:42.305Z,53.99
2022-12-29T14:22:33.182Z,53.91
2022-12-29T14:25:57.111Z,54.07
2022-12-29T14:28:48.958Z,53.94
2022-12-29T14:31:36.413Z,53.98
2022-12-29T14:34:22.465Z,53.94
2022-12-29T14:37:43.621Z,54.11
2022-12-29T14:40:29.673Z,54.22
2022-12-29T14:43:26.829Z,54.06
2022-12-29T14:46:12.858Z,54.31
2022-12-29T14:48:59.963Z,54.40
2022-12-29T14:51:48.083Z,54.45
2022-12-29T14:54:40.000Z,54.65
2022-12-29T14:57:30.153Z,54.76
2022-12-29T15:00:26.630Z,54.70
2022-12-29T15:03:21.330Z,54.64
2022-12-29T15:06:15.335Z,54.56
2022-12-29T15:09:01.298Z,54.63
2022-12-29T15:11:54.191Z,54.77
2022-12-29T15:14:51.576Z,55.13
2022-12-29T15:17:39.911Z,55.02
2022-12-29T15:20:31.495Z,54.96
2022-12-29T15:23:18.371Z,54.98
2022-12-29T15:26:08.635Z,54.94
2022-12-29T15:28:55.743Z,55.08
2022-12-29T15:31:49.870Z,54.95
2022-12-29T15:34:36.044Z,55.22
2022-12-29T15:37:30.221Z,55.20
2022-12-29T15:40:31.868Z,55.38
2022-12-29T15:44:01.638Z,55.34
2022-12-29T15:46:52.158Z,55.64
2022-12-29T15:49:38.360Z,55.31
2022-12-29T15:52:25.785Z,55.68
2022-12-29T15:55:42.953Z,55.88
2022-12-29T15:58:30.716Z,55.59
2022-12-29T16:01:20.987Z,55.88
2022-12-29T16:04:08.207Z,55.78
2022-12-29T16:07:07.046Z,55.84
2022-12-29T16:09:58.458Z,55.66
2022-12-29T16:12:44.937Z,55.95
2022-12-29T16:15:30.968Z,55.84
2022-12-29T16:18:28.444Z,55.94
2022-12-29T16:21:29.506Z,56.15
2022-12-29T16:24:26.782Z,56.08
2022-12-29T16:27:25.380Z,55.99
2022-12-29T16:30:32.834Z,56.18
2022-12-29T16:34:10.563Z,56.42
2022-12-29T16:37:05.443Z,56.36
2022-12-29T16:39:51.377Z,56.13
2022-12-29T16:42:51.876Z,56.19
2022-12-29T16:45:48.040Z,56.43
2022-12-29T16:48:51.175Z,56.50
2022-12-29T16:51:37.683Z,56.65
2022-12-29T16:54:53.947Z,56.98
2022-12-29T16:57:39.541Z,56.92
2022-12-29T17:00:28.025Z,56.80
2022-12-29T17:03:14.682Z,56.66
2022-12-29T17:06:00.883Z,56.94
2022-12-29T17:08:47.480Z,57.04
2022-12-29T17:11:59.441Z,57.08
2022-12-29T17:14:59.976Z,57.27
2022-12-29T17:17:46.886Z,56.84
2022-12-29T17:20:32.906Z,57.05
2022-12-29T17:23:24.456Z,56.92
2022-12-29T17:26:17.329Z,57.18
2022-12-29T17:29:03.970Z,57.03
2022-12-29T17:31:49.891Z,57.20
2022-12-29T17:34:35.386Z,57.34
2022-12-29T17:37:23.878Z,56.83
2022-12-29T17:40:14.951Z,57.15
2022-12-29T17:43:00.920Z,57.35
2022-12-29T17:45:51.319Z,57.15
2022-12-29T17:48:37.286Z,57.25
2022-12-29T17:51:23.066Z,57.39
2022-12-29T17:54:20.514Z,57.31
2022-12-29T17:57:06.404Z,57.61
2022-12-29T17:59:52.446Z,57.60
2022-12-29T18:02:38.356Z,57.56
2022-12-29T18:05:27.027Z,57.22
2022-12-29T18:08:13.405Z,57.45
2022-12-29T18:10:59.190Z,57.79
2022-12-29T18:13:46.958Z,57.90
2022-12-29T18:16:32.873Z,57.32
2022-12-29T18:19:18.490Z,57.41
2022-12-29T18:22:04.381Z,57.95
2022-12-29T18:24:50.934Z,58.32
2022-12-29T18:27:36.529Z,57.85
2022-12-29T18:30:22.890Z,57.64
2022-12-29T18:33:20.974Z,57.56
2022-12-29T18:36:10.407Z,57.38
2022-12-29T18:38:56.520Z,58.38
2022-12-29T18:41:42.331Z,57.86
2022-12-29T18:44:28.444Z,58.76
2022-12-29T18:47:14.651Z,58.46
2022-12-29T18:50:00.481Z,58.21
2022-12-29T18:52:46.513Z,58.33
2022-12-29T18:55:32.920Z,58.53
2022-12-29T18:58:18.825Z,58.22
2022-12-29T19:01:06.629Z,58.43
2022-12-29T19:03:52.777Z,58.21
2022-12-29T19:06:38.945Z,58.55
2022-12-29T19:09:26.702Z,58.15
2022-12-29T19:12:15.773Z,58.30
2022-12-29T19:15:02.405Z,58.64
2022-12-29T19:18:01.965Z,58.56
2022-12-29T19:20:57.523Z,58.36
2022-12-29T19:23:43.365Z,58.67
2022-12-29T19:26:37.433Z,58.96
2022-12-29T19:29:23.441Z,58.56
2022-12-29T19:32:09.330Z,58.69
2022-12-29T19:34:55.013Z,58.96
2022-12-29T19:37:41.653Z,58.30
2022-12-29T19:40:28.041Z,59.15
2022-12-29T19:43:14.506Z,58.53
2022-12-29T19:46:09.496Z,58.50
2022-12-29T19:48:59.459Z,59.49
2022-12-29T19:51:45.595Z,59.29
2022-12-29T19:54:31.826Z,59.13
2022-12-29T19:57:18.071Z,59.20
2022-12-29T20:00:04.404Z,58.91
2022-12-29T20:02:57.845Z,59.75
2022-12-29T20:05:48.943Z,58.94
2022-12-29T20:08:35.631Z,58.81
2022-12-29T20:11:21.976Z,58.63
2022-12-29T20:14:08.279Z,58.75
2022-12-29T20:17:10.770Z,58.59
2022-12-29T20:20:01.291Z,58.69
2022-12-29T20:22:46.941Z,59.23
2022-12-29T20:25:48.597Z,58.56
2022-12-29T20:28:36.969Z,58.94
2022-12-29T20:31:41.361Z,59.09
2022-12-29T20:34:31.574Z,59.04
2022-12-29T20:37:17.914Z,58.86
2022-12-29T20:40:04.613Z,59.17
2022-12-29T20:42:50.318Z,58.65
2022-12-29T20:45:36.820Z,58.91
2022-12-29T20:48:22.615Z,58.80
2022-12-29T20:51:08.988Z,58.83
2022-12-29T20:53:55.002Z,59.34
2022-12-29T20:56:40.884Z,59.21
2022-12-29T20:59:28.021Z,59.49
2022-12-29T21:02:22.720Z,59.01
2022-12-29T21:05:25.659Z,59.26
2022-12-29T21:08:12.513Z,59.38
2022-12-29T21:10:58.996Z,58.72
2022-12-29T21:13:48.007Z,58.77
2022-12-29T21:16:34.032Z,59.25
2022-12-29T21:19:20.247Z,59.07
2022-12-29T21:22:06.321Z,59.24
2022-12-29T21:24:52.361Z,59.17
2022-12-29T21:27:38.994Z,59.18
2022-12-29T21:30:25.206Z,59.45
2022-12-29T21:33:10.878Z,59.31
2022-12-29T21:36:04.178Z,59.34
2022-12-29T21:38:50.082Z,59.06
2022-12-29T21:41:36.498Z,59.34
2022-12-29T21:44:41.799Z,59.21
2022-12-29T21:47:48.983Z,59.43
2022-12-29T21:50:58.408Z,58.91
2022-12-29T21:53:47.852Z,59.36
2022-12-29T21:56:40.085Z,59.38
2022-12-29T21:59:44.678Z,59.70
2022-12-29T22:02:49.405Z,59.73
2022-12-29T22:05:53.944Z,59.63
2022-12-29T22:09:04.674Z,59.85
2022-12-29T22:12:09.435Z,59.65
2022-12-29T22:14:55.280Z,60.18
2022-12-29T22:17:48.699Z,60.12
2022-12-29T22:20:38.664Z,59.70
2022-12-29T22:23:24.373Z,59.53
2022-12-29T22:26:12.446Z,59.65
2022-12-29T22:28:58.727Z,59.76
2022-12-29T22:31:44.543Z,59.83
2022-12-29T22:34:30.216Z,59.67
2022-12-29T22:37:16.617Z,59.96
2022-12-29T22:40:02.568Z,59.99
2022-12-29T22:42:48.236Z,60.17
2022-12-29T22:45:34.017Z,60.29
2022-12-29T22:48:19.682Z,60.05
2022-12-29T22:51:05.805Z,59.78
2022-12-29T22:53:51.926Z,60.13
2022-12-29T22:56:42.161Z,59.97
2022-12-29T22:59:28.144Z,59.60
2022-12-29T23:02:13.916Z,59.70
2022-12-29T23:05:03.413Z,59.65
2022-12-29T23:07:50.235Z,59.74
2022-12-29T23:10:36.119Z,60.13
2022-12-29T23:13:22.027Z,59.73
2022-12-29T23:16:08.237Z,60.12
2022-12-29T23:18:54.068Z,59.88
2022-12-29T23:21:40.112Z,59.91
2022-12-29T23:24:26.213Z,59.66
2022-12-29T23:27:12.234Z,60.15
2022-12-29T23:29:58.098Z,59.90
2022-12-29T23:32:44.031Z,60.24
2022-12-29T23:35:29.905Z,60.24
2022-12-29T23:38:15.647Z,60.04
2022-12-29T23:41:01.525Z,60.27
2022-12-29T23:43:47.364Z,60.05
2022-12-29T23:46:33.167Z,60.57
2022-12-29T23:49:18.993Z,60.39
2022-12-29T23:52:04.790Z,60.37
2022-12-29T23:54:50.495Z,60.08
2022-12-29T23:57:36.229Z,60.17
